Terminal Aerodrome Forecast
Issued by NWS

Home | Current Version | Previous Version | Text Only | Print | Product List | Glossary On
Versions: 1 2 3 4 5 6 7 8 9 10 11 12 13 14 15 16
000
FTUS46 KMTR 312338
TAFSJC
TAF
KSJC 312338Z 0100/0124 31012KT P6SM FEW050 SCT150
     FM010500 31008KT P6SM FEW200
     FM010800 31006KT P6SM BKN010
     FM011300 18003KT P6SM OVC010
     FM011700 29003KT P6SM FEW012 SCT150
     FM011900 30006KT P6SM FEW012 SCT150
     FM012100 31012KT P6SM SCT150=

USA.gov is the U.S. government's official web portal to all federal, state and local government web resources and services.